createdAt,value
2023-01-20T00:01:26.878Z,7.65
2023-01-20T00:03:56.450Z,7.57
2023-01-20T00:06:28.025Z,7.53
2023-01-20T00:08:57.821Z,7.48
2023-01-20T00:11:25.395Z,7.50
2023-01-20T00:13:58.041Z,7.65
2023-01-20T00:16:26.828Z,7.69
2023-01-20T00:18:54.819Z,7.80
2023-01-20T00:21:22.344Z,7.32
2023-01-20T00:23:50.439Z,7.24
2023-01-20T00:26:23.566Z,7.35
2023-01-20T00:28:54.722Z,7.09
2023-01-20T00:31:24.794Z,7.05
2023-01-20T00:33:54.704Z,7.05
2023-01-20T00:36:23.721Z,6.97
2023-01-20T00:38:52.066Z,7.03
2023-01-20T00:41:20.409Z,6.84
2023-01-20T00:43:48.076Z,6.77
2023-01-20T00:46:16.016Z,6.68
2023-01-20T00:48:43.817Z,6.56
2023-01-20T00:51:11.645Z,6.43
2023-01-20T00:53:39.393Z,6.33
2023-01-20T00:56:07.966Z,6.25
2023-01-20T00:58:35.520Z,6.21
2023-01-20T01:01:03.027Z,6.24
2023-01-20T01:03:31.274Z,6.06
2023-01-20T01:06:16.374Z,6.01
2023-01-20T01:08:44.930Z,6.12
2023-01-20T01:11:13.060Z,5.99
2023-01-20T01:13:41.122Z,6.01
2023-01-20T01:16:13.558Z,5.98
2023-01-20T01:18:41.422Z,5.91
2023-01-20T01:21:11.479Z,5.89
2023-01-20T01:23:38.733Z,5.90
2023-01-20T01:26:06.611Z,5.96
2023-01-20T01:28:34.436Z,5.93
2023-01-20T01:31:03.281Z,6.11
2023-01-20T01:33:31.098Z,6.05
2023-01-20T01:36:00.566Z,5.91
2023-01-20T01:38:29.391Z,6.03
2023-01-20T01:40:56.978Z,6.05
2023-01-20T01:43:30.955Z,5.87
2023-01-20T01:45:58.223Z,5.96
2023-01-20T01:48:40.438Z,6.04
2023-01-20T01:51:15.307Z,6.02
2023-01-20T01:53:54.202Z,6.10
2023-01-20T01:56:24.257Z,6.17
2023-01-20T01:58:55.807Z,6.25
2023-01-20T02:01:23.445Z,6.28
2023-01-20T02:04:03.727Z,6.32
2023-01-20T02:06:38.571Z,6.23
2023-01-20T02:09:06.515Z,6.30
2023-01-20T02:11:41.705Z,6.21
2023-01-20T02:14:09.449Z,5.94
2023-01-20T02:16:43.699Z,5.93
2023-01-20T02:19:33.439Z,5.81
2023-01-20T02:22:11.846Z,5.86
2023-01-20T02:25:04.255Z,5.80
2023-01-20T02:27:56.827Z,5.92
2023-01-20T02:30:24.125Z,6.03
2023-01-20T02:33:10.675Z,6.12
2023-01-20T02:35:45.799Z,6.25
2023-01-20T02:38:22.332Z,6.22
2023-01-20T02:41:27.122Z,6.32
2023-01-20T02:44:05.039Z,6.36
2023-01-20T02:46:47.811Z,6.17
2023-01-20T02:49:22.543Z,6.23
2023-01-20T02:52:13.148Z,6.17
2023-01-20T02:54:45.000Z,6.21
2023-01-20T02:57:17.549Z,6.15
2023-01-20T02:59:50.711Z,6.08
2023-01-20T03:02:24.734Z,5.93
2023-01-20T03:05:04.139Z,6.02
2023-01-20T03:07:34.823Z,6.03
2023-01-20T03:10:08.227Z,6.12
2023-01-20T03:12:43.618Z,6.15
2023-01-20T03:15:12.664Z,6.19
2023-01-20T03:17:40.589Z,6.17
2023-01-20T03:20:08.917Z,6.04
2023-01-20T03:22:37.062Z,6.29
2023-01-20T03:25:04.924Z,6.41
2023-01-20T03:27:32.475Z,6.45
2023-01-20T03:30:00.277Z,6.68
2023-01-20T03:32:28.913Z,6.54
2023-01-20T03:34:57.357Z,6.64
2023-01-20T03:37:25.053Z,6.64
2023-01-20T03:39:52.630Z,6.58
2023-01-20T03:42:30.587Z,6.48
2023-01-20T03:45:11.676Z,6.45
2023-01-20T03:48:18.173Z,6.41
2023-01-20T03:50:55.325Z,6.50
2023-01-20T03:53:29.058Z,6.68
2023-01-20T03:56:06.912Z,6.69
2023-01-20T03:58:39.395Z,6.88
2023-01-20T04:01:18.475Z,7.12
2023-01-20T04:03:49.269Z,7.19
2023-01-20T04:06:19.795Z,7.39
2023-01-20T04:08:56.862Z,7.40
2023-01-20T04:11:24.773Z,7.35
2023-01-20T04:13:52.476Z,7.39
2023-01-20T04:16:21.609Z,7.33
2023-01-20T04:18:50.442Z,7.28
2023-01-20T04:21:35.334Z,7.35
2023-01-20T04:24:05.479Z,7.26
2023-01-20T04:26:33.278Z,7.25
2023-01-20T04:29:09.913Z,7.29
2023-01-20T04:31:39.946Z,7.30
2023-01-20T04:34:08.107Z,7.39
2023-01-20T04:36:35.659Z,7.38
2023-01-20T04:39:03.384Z,7.32
2023-01-20T04:41:30.736Z,7.28
2023-01-20T04:43:58.103Z,7.32
2023-01-20T04:46:25.893Z,7.27
2023-01-20T04:48:53.237Z,7.21
2023-01-20T04:51:20.614Z,7.40
2023-01-20T04:53:48.347Z,7.47
2023-01-20T04:56:16.363Z,7.38
2023-01-20T04:58:44.135Z,7.48
2023-01-20T05:01:11.880Z,7.38
2023-01-20T05:03:39.313Z,7.41
2023-01-20T05:06:07.016Z,7.62
2023-01-20T05:08:34.849Z,7.45
2023-01-20T05:11:02.227Z,7.41
2023-01-20T05:13:29.677Z,7.46
2023-01-20T05:15:57.563Z,7.41
2023-01-20T05:18:24.957Z,7.46
2023-01-20T05:20:52.236Z,7.47
2023-01-20T05:23:20.096Z,7.62
2023-01-20T05:25:54.085Z,7.45
2023-01-20T05:28:22.376Z,7.48
2023-01-20T05:30:50.846Z,7.38
2023-01-20T05:33:18.488Z,7.42
2023-01-20T05:35:46.320Z,7.54
2023-01-20T05:38:13.752Z,7.18
2023-01-20T05:40:42.526Z,6.99
2023-01-20T05:43:12.822Z,6.64
2023-01-20T05:45:40.378Z,6.68
2023-01-20T05:48:08.846Z,6.91
2023-01-20T05:50:36.679Z,7.05
2023-01-20T05:53:04.063Z,6.87
2023-01-20T05:55:31.622Z,6.78
2023-01-20T05:58:02.096Z,6.97
2023-01-20T06:00:30.349Z,6.85
2023-01-20T06:02:58.809Z,6.55
2023-01-20T06:05:26.425Z,6.40
2023-01-20T06:07:57.356Z,6.66
2023-01-20T06:10:28.198Z,6.69
2023-01-20T06:12:56.468Z,6.71
2023-01-20T06:15:24.688Z,6.77
2023-01-20T06:17:55.060Z,6.72
2023-01-20T06:20:22.673Z,6.74
2023-01-20T06:22:50.130Z,6.66
2023-01-20T06:25:17.945Z,6.55
2023-01-20T06:27:45.284Z,6.68
2023-01-20T06:30:12.845Z,6.53
2023-01-20T06:32:40.545Z,6.59
2023-01-20T06:35:10.566Z,6.51
2023-01-20T06:37:38.570Z,6.17
2023-01-20T06:40:06.659Z,6.20
2023-01-20T06:42:34.149Z,6.38
2023-01-20T06:45:01.556Z,6.38
2023-01-20T06:47:29.260Z,6.38
2023-01-20T06:49:56.575Z,6.46
2023-01-20T06:52:23.954Z,6.60
2023-01-20T06:54:51.758Z,6.69
2023-01-20T06:57:19.790Z,6.74
2023-01-20T06:59:47.152Z,6.80
2023-01-20T07:02:15.351Z,6.84
2023-01-20T07:04:43.476Z,6.79
2023-01-20T07:07:13.030Z,6.44
2023-01-20T07:09:40.746Z,6.17
2023-01-20T07:12:08.145Z,6.39
2023-01-20T07:14:35.433Z,6.31
2023-01-20T07:17:03.358Z,6.25
2023-01-20T07:19:30.710Z,6.28
2023-01-20T07:21:58.008Z,6.19
2023-01-20T07:24:25.650Z,6.35
2023-01-20T07:26:54.153Z,6.18
2023-01-20T07:29:21.660Z,6.12
2023-01-20T07:31:49.488Z,6.37
2023-01-20T07:34:17.140Z,6.23
2023-01-20T07:36:44.559Z,6.46
2023-01-20T07:39:13.288Z,6.43
2023-01-20T07:41:40.640Z,6.54
2023-01-20T07:44:08.805Z,6.65
2023-01-20T07:46:37.534Z,6.44
2023-01-20T07:49:04.935Z,6.43
2023-01-20T07:51:33.833Z,6.39
2023-01-20T07:54:03.105Z,6.50
2023-01-20T07:56:30.919Z,6.47
2023-01-20T07:58:58.276Z,6.32
2023-01-20T08:01:28.869Z,6.17
2023-01-20T08:03:57.695Z,6.41
2023-01-20T08:06:26.385Z,6.36
2023-01-20T08:08:56.217Z,6.43
2023-01-20T08:11:25.466Z,6.53
2023-01-20T08:13:53.032Z,6.43
2023-01-20T08:16:20.660Z,6.42
2023-01-20T08:18:48.537Z,6.37
2023-01-20T08:21:31.353Z,6.29
2023-01-20T08:24:00.937Z,6.22
2023-01-20T08:26:30.038Z,6.13
2023-01-20T08:29:03.468Z,6.20
2023-01-20T08:31:31.439Z,6.15
2023-01-20T08:33:59.207Z,6.23
2023-01-20T08:36:30.733Z,6.24
2023-01-20T08:39:02.312Z,6.13
2023-01-20T08:41:33.692Z,6.19
2023-01-20T08:44:02.969Z,6.33
2023-01-20T08:46:30.585Z,6.45
2023-01-20T08:48:58.116Z,6.58
2023-01-20T08:51:29.365Z,6.68
2023-01-20T08:53:57.328Z,6.70
2023-01-20T08:56:25.132Z,7.06
2023-01-20T08:58:54.243Z,7.11
2023-01-20T09:01:24.956Z,6.96
2023-01-20T09:04:04.900Z,6.93
2023-01-20T09:06:49.725Z,6.96
2023-01-20T09:09:19.705Z,7.25
2023-01-20T09:11:51.487Z,7.47
2023-01-20T09:14:20.884Z,7.57
2023-01-20T09:16:48.806Z,7.49
2023-01-20T09:19:16.794Z,7.70
2023-01-20T09:21:44.712Z,7.57
2023-01-20T09:24:12.264Z,7.59
2023-01-20T09:26:39.767Z,7.72
2023-01-20T09:29:19.084Z,7.72
2023-01-20T09:31:50.393Z,7.51
2023-01-20T09:34:23.427Z,7.41
2023-01-20T09:36:55.030Z,7.43
2023-01-20T09:39:41.765Z,7.39
2023-01-20T09:42:49.713Z,7.35
2023-01-20T09:45:40.603Z,7.48
2023-01-20T09:48:36.831Z,7.83
2023-01-20T09:51:29.223Z,8.26
2023-01-20T09:53:59.603Z,8.00
2023-01-20T09:56:30.778Z,8.55
2023-01-20T09:59:07.001Z,9.23
2023-01-20T10:01:46.258Z,9.37
2023-01-20T10:04:37.317Z,9.45
2023-01-20T10:07:16.979Z,9.82
2023-01-20T10:09:54.957Z,10.00
2023-01-20T10:12:33.858Z,10.00
2023-01-20T10:15:07.648Z,9.87
2023-01-20T10:17:46.965Z,9.84
2023-01-20T10:20:28.595Z,9.66
2023-01-20T10:22:55.930Z,10.29
2023-01-20T10:25:33.470Z,10.47
2023-01-20T10:28:11.742Z,10.15
2023-01-20T10:30:39.570Z,10.20
2023-01-20T10:33:21.443Z,10.40
2023-01-20T10:35:56.150Z,10.07
2023-01-20T10:38:36.211Z,9.63
2023-01-20T10:41:17.614Z,9.40
2023-01-20T10:43:47.121Z,9.40
2023-01-20T10:46:18.039Z,9.40
2023-01-20T10:48:45.336Z,9.16
2023-01-20T10:51:34.141Z,9.13
2023-01-20T10:54:01.633Z,9.08
2023-01-20T10:56:43.012Z,8.90
2023-01-20T10:59:17.581Z,9.08
2023-01-20T11:01:56.520Z,9.15
2023-01-20T11:04:36.169Z,9.22
2023-01-20T11:07:08.557Z,9.24
2023-01-20T11:09:37.918Z,9.20
2023-01-20T11:12:15.050Z,8.99
2023-01-20T11:14:43.831Z,9.10
2023-01-20T11:17:17.934Z,9.02
2023-01-20T11:19:47.508Z,9.24
2023-01-20T11:22:33.280Z,9.12
2023-01-20T11:25:04.218Z,9.09
2023-01-20T11:27:52.171Z,9.06
2023-01-20T11:30:32.846Z,8.98
2023-01-20T11:33:20.742Z,9.25
2023-01-20T11:36:16.970Z,9.23
2023-01-20T11:38:47.646Z,9.33
2023-01-20T11:41:27.800Z,9.24
2023-01-20T11:43:57.453Z,8.96
2023-01-20T11:46:30.407Z,8.67
2023-01-20T11:49:16.678Z,8.50
2023-01-20T11:51:47.368Z,8.50
2023-01-20T11:54:33.031Z,8.68
2023-01-20T11:57:08.146Z,8.59
2023-01-20T11:59:36.890Z,8.55
2023-01-20T12:02:07.712Z,8.41
2023-01-20T12:04:57.091Z,7.56
2023-01-20T12:07:30.270Z,7.82
2023-01-20T12:10:33.092Z,7.82
2023-01-20T12:13:06.489Z,7.56
2023-01-20T12:15:37.934Z,7.68
2023-01-20T12:18:20.059Z,7.45
2023-01-20T12:21:08.308Z,7.43
2023-01-20T12:23:48.111Z,7.00
2023-01-20T12:26:20.790Z,7.06
2023-01-20T12:29:09.611Z,6.89
2023-01-20T12:31:37.164Z,6.77
2023-01-20T12:34:11.776Z,6.78
2023-01-20T12:36:50.778Z,6.40
2023-01-20T12:39:26.685Z,6.27
2023-01-20T12:42:34.429Z,6.17
2023-01-20T12:45:25.568Z,6.15
2023-01-20T12:48:11.398Z,5.92
2023-01-20T12:50:38.942Z,6.05
2023-01-20T12:53:22.052Z,6.12
2023-01-20T12:55:57.071Z,5.90
2023-01-20T12:58:43.173Z,6.06
2023-01-20T13:01:28.819Z,6.07
2023-01-20T13:04:26.006Z,5.95
2023-01-20T13:07:11.098Z,6.13
2023-01-20T13:09:50.906Z,6.06
2023-01-20T13:12:33.536Z,5.99
2023-01-20T13:15:30.601Z,5.94
2023-01-20T13:18:16.354Z,5.84
2023-01-20T13:20:45.919Z,5.90
2023-01-20T13:23:14.998Z,5.91
2023-01-20T13:25:45.010Z,6.03
2023-01-20T13:28:22.777Z,6.00
2023-01-20T13:30:54.424Z,6.02
2023-01-20T13:33:40.452Z,6.11
2023-01-20T13:36:23.465Z,6.09
2023-01-20T13:39:34.793Z,6.55
2023-01-20T13:42:02.424Z,6.70
2023-01-20T13:44:37.172Z,6.65
2023-01-20T13:47:08.828Z,6.66
2023-01-20T13:49:52.162Z,6.73
2023-01-20T13:52:50.570Z,6.62
2023-01-20T13:55:48.391Z,6.26
2023-01-20T13:58:34.643Z,5.89
2023-01-20T14:01:09.116Z,6.04
2023-01-20T14:03:40.904Z,5.69
2023-01-20T14:06:28.664Z,5.80
2023-01-20T14:08:56.370Z,5.67
2023-01-20T14:11:26.355Z,5.67
2023-01-20T14:13:57.369Z,5.76
2023-01-20T14:16:29.429Z,5.73
2023-01-20T14:19:02.142Z,5.46
2023-01-20T14:21:39.390Z,5.54
2023-01-20T14:24:06.789Z,5.43
2023-01-20T14:26:34.513Z,5.36
2023-01-20T14:29:05.429Z,5.25
2023-01-20T14:31:40.586Z,5.45
2023-01-20T14:34:33.292Z,5.36
2023-01-20T14:37:18.192Z,5.38
2023-01-20T14:39:50.188Z,5.45
2023-01-20T14:42:20.233Z,5.38
2023-01-20T14:44:49.818Z,5.44
2023-01-20T14:47:18.282Z,5.69
2023-01-20T14:49:48.342Z,5.49
2023-01-20T14:52:29.059Z,5.50
2023-01-20T14:54:56.907Z,5.56
2023-01-20T14:57:28.009Z,5.59
2023-01-20T15:00:12.134Z,5.56
2023-01-20T15:02:42.836Z,5.42
2023-01-20T15:05:28.770Z,5.37
2023-01-20T15:08:06.833Z,5.18
2023-01-20T15:10:34.354Z,5.21
2023-01-20T15:13:02.214Z,5.11
2023-01-20T15:15:31.932Z,5.18
2023-01-20T15:18:11.312Z,5.15
2023-01-20T15:20:42.088Z,5.38
2023-01-20T15:23:15.105Z,5.54
2023-01-20T15:25:42.891Z,5.67
2023-01-20T15:28:22.932Z,5.38
2023-01-20T15:30:52.507Z,5.55
2023-01-20T15:33:21.813Z,5.45
2023-01-20T15:36:00.818Z,5.42
2023-01-20T15:38:31.711Z,5.23
2023-01-20T15:40:59.075Z,4.97
2023-01-20T15:43:26.518Z,4.92
2023-01-20T15:45:54.468Z,5.09
2023-01-20T15:48:22.473Z,5.33
2023-01-20T15:50:50.214Z,5.40
2023-01-20T15:53:18.072Z,5.22
2023-01-20T15:55:51.340Z,5.11
2023-01-20T15:58:26.567Z,5.01
2023-01-20T16:00:55.904Z,5.03
2023-01-20T16:03:25.427Z,4.93
2023-01-20T16:05:55.303Z,4.83
2023-01-20T16:08:26.038Z,5.05
2023-01-20T16:10:53.734Z,4.92
2023-01-20T16:13:21.097Z,4.82
2023-01-20T16:15:48.503Z,5.00
2023-01-20T16:18:18.578Z,4.90
2023-01-20T16:20:47.877Z,5.07
2023-01-20T16:23:16.303Z,5.32
2023-01-20T16:25:44.208Z,5.12
2023-01-20T16:28:14.755Z,5.40
2023-01-20T16:30:42.896Z,5.23
2023-01-20T16:33:36.774Z,4.91
2023-01-20T16:36:06.730Z,4.87
2023-01-20T16:38:34.473Z,4.67
2023-01-20T16:41:12.029Z,4.78
2023-01-20T16:43:43.970Z,4.60
2023-01-20T16:46:20.859Z,4.70
2023-01-20T16:48:49.254Z,4.63
2023-01-20T16:51:19.249Z,4.65
2023-01-20T16:53:46.598Z,4.85
2023-01-20T16:56:15.953Z,4.54
2023-01-20T16:58:43.961Z,4.53
2023-01-20T17:01:14.291Z,4.48
2023-01-20T17:03:42.835Z,4.23
2023-01-20T17:06:17.593Z,3.97
2023-01-20T17:08:54.106Z,4.01
2023-01-20T17:11:24.339Z,3.98
2023-01-20T17:13:52.767Z,3.73
2023-01-20T17:16:20.778Z,3.68
2023-01-20T17:18:53.323Z,3.67
2023-01-20T17:21:22.903Z,3.54
2023-01-20T17:23:55.016Z,3.50
2023-01-20T17:26:23.826Z,3.53
2023-01-20T17:28:56.525Z,3.61
2023-01-20T17:31:24.465Z,3.62
2023-01-20T17:33:52.237Z,3.62
2023-01-20T17:36:20.519Z,3.42
2023-01-20T17:38:48.246Z,3.26
2023-01-20T17:41:15.877Z,3.11
2023-01-20T17:43:46.737Z,3.16
2023-01-20T17:46:19.260Z,3.23
2023-01-20T17:48:47.575Z,3.39
2023-01-20T17:51:18.218Z,3.51
2023-01-20T17:53:45.809Z,3.70
2023-01-20T17:56:14.314Z,3.65
2023-01-20T17:58:43.732Z,3.41
2023-01-20T18:01:21.812Z,3.44
2023-01-20T18:03:52.501Z,3.62
2023-01-20T18:06:21.483Z,3.56
2023-01-20T18:09:10.399Z,3.65
2023-01-20T18:11:39.096Z,3.69
2023-01-20T18:14:07.580Z,4.05
2023-01-20T18:16:37.374Z,3.97
2023-01-20T18:19:05.527Z,3.99
2023-01-20T18:21:37.839Z,3.94
2023-01-20T18:24:10.221Z,3.86
2023-01-20T18:26:42.641Z,3.79
2023-01-20T18:29:16.631Z,3.92
2023-01-20T18:31:47.893Z,4.13
2023-01-20T18:34:16.017Z,4.06
2023-01-20T18:36:46.377Z,4.09
2023-01-20T18:39:17.679Z,3.90
2023-01-20T18:41:46.520Z,3.77
2023-01-20T18:44:14.083Z,3.86
2023-01-20T18:46:41.969Z,4.03
2023-01-20T18:49:13.617Z,3.92
2023-01-20T18:51:46.617Z,4.00
2023-01-20T18:54:23.064Z,3.93
2023-01-20T18:56:50.493Z,4.06
2023-01-20T18:59:20.861Z,3.77
2023-01-20T19:01:48.715Z,3.91
2023-01-20T19:04:16.198Z,3.87
2023-01-20T19:06:45.540Z,3.89
2023-01-20T19:09:13.168Z,3.91
2023-01-20T19:11:42.117Z,3.98
2023-01-20T19:14:13.994Z,3.96
2023-01-20T19:16:45.559Z,4.05
2023-01-20T19:19:13.918Z,4.16
2023-01-20T19:21:41.417Z,4.04
2023-01-20T19:24:14.320Z,3.83
2023-01-20T19:26:42.034Z,3.95
2023-01-20T19:29:12.938Z,3.71
2023-01-20T19:31:40.638Z,3.89
2023-01-20T19:34:10.159Z,4.14
2023-01-20T19:36:37.817Z,3.94
2023-01-20T19:39:05.988Z,4.00
2023-01-20T19:41:36.254Z,3.96
2023-01-20T19:44:06.827Z,3.89
2023-01-20T19:46:37.250Z,3.92
2023-01-20T19:49:04.802Z,3.91
2023-01-20T19:51:32.303Z,4.02
2023-01-20T19:54:01.546Z,4.11
2023-01-20T19:56:31.176Z,4.13
2023-01-20T19:59:00.940Z,4.20
2023-01-20T20:01:31.857Z,4.10
2023-01-20T20:04:05.732Z,4.12
2023-01-20T20:06:48.573Z,4.06
2023-01-20T20:09:23.555Z,3.68
2023-01-20T20:11:51.032Z,3.78
2023-01-20T20:14:20.835Z,3.37
2023-01-20T20:16:49.123Z,3.38
2023-01-20T20:19:19.458Z,3.36
2023-01-20T20:21:47.629Z,3.24
2023-01-20T20:24:16.976Z,3.27
2023-01-20T20:26:46.432Z,3.35
2023-01-20T20:29:16.276Z,3.38
2023-01-20T20:31:43.902Z,3.33
2023-01-20T20:34:14.554Z,3.46
2023-01-20T20:36:42.617Z,3.47
2023-01-20T20:39:14.857Z,3.49
2023-01-20T20:41:43.155Z,3.48
2023-01-20T20:44:11.593Z,3.65
2023-01-20T20:46:39.061Z,3.77
2023-01-20T20:49:06.900Z,3.71
2023-01-20T20:51:35.020Z,3.55
2023-01-20T20:54:03.300Z,3.37
2023-01-20T20:56:32.060Z,3.30
2023-01-20T20:59:02.796Z,3.52
2023-01-20T21:01:33.540Z,3.41
2023-01-20T21:04:02.264Z,3.41
2023-01-20T21:06:30.290Z,3.24
2023-01-20T21:08:59.011Z,3.39
2023-01-20T21:11:26.600Z,3.38
2023-01-20T21:13:54.348Z,3.35
2023-01-20T21:16:23.587Z,3.39
2023-01-20T21:18:53.218Z,3.39
2023-01-20T21:21:20.498Z,3.49
2023-01-20T21:23:58.970Z,3.49
2023-01-20T21:26:30.612Z,3.72
2023-01-20T21:29:02.280Z,3.61
2023-01-20T21:31:31.635Z,3.77
2023-01-20T21:34:00.855Z,3.65
2023-01-20T21:36:30.055Z,3.64
2023-01-20T21:38:58.869Z,3.67
2023-01-20T21:41:26.819Z,3.66
2023-01-20T21:44:12.716Z,3.62
2023-01-20T21:46:40.879Z,3.56
2023-01-20T21:49:27.723Z,3.43
2023-01-20T21:52:15.718Z,3.57
2023-01-20T21:54:45.371Z,3.48
2023-01-20T21:57:14.725Z,3.39
2023-01-20T21:59:43.209Z,3.38
2023-01-20T22:02:13.446Z,3.34
2023-01-20T22:04:41.682Z,3.45
2023-01-20T22:07:09.445Z,3.52
2023-01-20T22:09:38.459Z,3.50
2023-01-20T22:12:06.388Z,3.39
2023-01-20T22:14:33.978Z,3.30
2023-01-20T22:17:01.639Z,3.30
2023-01-20T22:19:29.313Z,3.32
2023-01-20T22:21:57.046Z,3.36
2023-01-20T22:24:24.385Z,3.33
2023-01-20T22:26:52.260Z,3.33
2023-01-20T22:29:19.852Z,3.42
2023-01-20T22:31:47.562Z,3.48
2023-01-20T22:34:15.192Z,3.45
2023-01-20T22:36:42.502Z,3.20
2023-01-20T22:39:12.059Z,3.19
2023-01-20T22:41:40.430Z,3.17
2023-01-20T22:44:08.393Z,2.83
2023-01-20T22:46:35.753Z,2.73
2023-01-20T22:49:03.654Z,2.90
2023-01-20T22:51:31.507Z,2.73
2023-01-20T22:54:01.100Z,2.73
2023-01-20T22:56:31.188Z,2.61
2023-01-20T22:58:59.706Z,2.32
2023-01-20T23:01:30.685Z,2.34
2023-01-20T23:04:00.917Z,2.47
2023-01-20T23:06:30.755Z,2.51
2023-01-20T23:09:00.033Z,2.23
2023-01-20T23:11:27.771Z,2.39
2023-01-20T23:13:55.260Z,2.21
2023-01-20T23:16:23.422Z,2.31
2023-01-20T23:18:51.827Z,2.49
2023-01-20T23:21:20.415Z,2.30
2023-01-20T23:23:54.797Z,2.56
2023-01-20T23:26:25.227Z,2.70
2023-01-20T23:28:54.071Z,2.68
2023-01-20T23:31:23.147Z,2.39
2023-01-20T23:33:50.953Z,2.41
2023-01-20T23:36:22.072Z,2.32
2023-01-20T23:38:49.361Z,2.31
2023-01-20T23:41:16.804Z,2.24
2023-01-20T23:43:44.400Z,2.27
2023-01-20T23:46:12.081Z,2.59
2023-01-20T23:48:39.501Z,2.72
2023-01-20T23:51:07.660Z,2.68
2023-01-20T23:53:37.829Z,2.66
2023-01-20T23:56:08.208Z,2.68
2023-01-20T23:58:35.915Z,2.80
